To modify the report, make a selection from each column below and re-run.

Report Type Graduation Filter Grade Filter Gender

(Grade filter for indiv report.)


Course PR Report: Silverlakes Sports Park

The report below currently displays:

  • Individual PR's
  • Grads & Current Runners
  • All Grades
  • Girls
  • 3 miles
  • Grads & Current Runners
All Time Rank Runner Name Grad Year Time Pace PR Date PR Event # of
Races
Graph full race
history on course
(pick up to 15)
1 Sydney Morrow 2022 17:58.2 5:59 9/17/21 Woodbridge Cross Country Classic 2
2 Mai Koyama 2022 18:21.9 6:07 9/20/19 Woodbridge XC Classic 3
3 Abigail Errington 2025 18:31.2 6:10 9/17/21 Woodbridge Cross Country Classic 1
4 Brooklyn Robinson 2021 18:41.8 6:14 9/15/17 Woodbridge XC Classic 1
5 Bailey Wu 2018 19:00.1 6:20 9/16/16 Woodbridge XC Classic 2
6 Elizabeth Bock 2019 19:06 6:22 9/14/18 Woodbridge XC Classic 3
7 Lindsay Michels 2021 19:11.6 6:24 9/20/19 Woodbridge XC Classic 2
8 Maddy Engelsman 2018 19:16.1 6:25 9/15/17 Woodbridge XC Classic 2
9 Kerrigan Riley 2022 19:24.8 6:28 9/17/21 Woodbridge Cross Country Classic 1
10 Lindsey Calva 2019 19:25.2 6:28 9/14/18 Woodbridge XC Classic 3
11 Sarah Uriarte 2019 19:27 6:29 9/14/18 Woodbridge XC Classic 3
12 Chaerin Lee 2021 19:38.2 6:33 9/14/18 Woodbridge XC Classic 1
13 Lilian Zhu 2022 19:41.6 6:34 9/20/19 Woodbridge XC Classic 3
14 Amelia Jarolim 2021 19:46.2 6:35 9/20/19 Woodbridge XC Classic 3
15 Kaile Fernandes 2023 19:50.1 6:37 9/17/21 Woodbridge Cross Country Classic 2
16 Amber Gonzalez Pacheco 2020 19:59.8 6:40 9/20/19 Woodbridge XC Classic 3
17 Gabriela Rodriguez 2022 20:16.9 6:46 9/17/21 Woodbridge Cross Country Classic 3
18 Celeste Amaya 2018 20:20.8 6:47 9/15/17 Woodbridge XC Classic 1
19 Miranda Liu 2022 20:43.6 6:55 9/17/21 Woodbridge Cross Country Classic 3
20 Luyang Zhang 2021 20:44.6 6:55 9/20/19 Woodbridge XC Classic 1
21 Katherine Conte 2017 20:45.1 6:55 9/16/16 Woodbridge XC Classic 1
22 Maylis Whetsel 2019 20:47.5 6:56 9/15/17 Woodbridge XC Classic 3
23 Caroline Liu 2018 20:59.7 7:00 9/15/17 Woodbridge XC Classic 2
24 Kate Lee 2020 21:01.5 7:01 9/15/17 Woodbridge XC Classic 1
25 Quyen Ballagh 2020 21:10.9 7:04 9/15/17 Woodbridge XC Classic 2
26 Amelie Geoffron 2025 21:31.2 7:10 9/17/21 Woodbridge Cross Country Classic 1
27 Caroline Liebe 2020 21:31.7 7:11 9/16/16 Woodbridge XC Classic 2
28 Kiana Dettman 2023 21:52.8 7:18 9/17/21 Woodbridge Cross Country Classic 1
29 Sascha Hsin 2024 22:00 7:20 9/17/21 Woodbridge Cross Country Classic 1
30 Lauren Jones 2021 22:21.9 7:27 9/15/17 Woodbridge XC Classic 2
31 Natali Lelieur 2018 22:24.3 7:28 9/15/17 Woodbridge XC Classic 2
32 Daniella Lat 2023 22:27.1 7:29 9/17/21 Woodbridge Cross Country Classic 2
33 Alana Ballagh 2018 22:32.4 7:31 9/16/16 Woodbridge XC Classic 1
34 Kelly Wu 2021 22:33.3 7:31 9/15/17 Woodbridge XC Classic 2
35 Melanie Romo 2025 23:00 7:40 9/17/21 Woodbridge Cross Country Classic 1
36 Jackie Takarabe 2019 23:06.7 7:42 9/16/16 Woodbridge XC Classic 1
37 Sophia Humphrey 2025 23:10.8 7:44 9/17/21 Woodbridge Cross Country Classic 1
38 Sarah Kang 2022 23:15.8 7:45 9/20/19 Woodbridge XC Classic 2
39 Destiny Rivera 2020 23:18.4 7:46 9/14/18 Woodbridge XC Classic 1
40 Diana Perea 2022 23:18.6 7:46 9/20/19 Woodbridge XC Classic 2
41 Julia Santos 2025 23:30.7 7:50 9/17/21 Woodbridge Cross Country Classic 1
42 Alicia Wilgoren 2023 24:18.4 8:06 9/20/19 Woodbridge XC Classic 2
43 Maya Gonzalez-Pacheco 2023 24:29.8 8:10 9/20/19 Woodbridge XC Classic 1
44 Sydney Lagarce 2023 24:36.8 8:12 9/20/19 Woodbridge XC Classic 1
45 Quincy Sakai 2024 24:42.3 8:14 9/17/21 Woodbridge Cross Country Classic 1
46 Susan Rodriguez 2018 24:52.4 8:17 9/15/17 Woodbridge XC Classic 1
47 Lauren Sharkey 2018 24:55.6 8:19 9/16/16 Woodbridge XC Classic 2
48 Hannah Bae 2022 25:01.1 8:20 9/20/19 Woodbridge XC Classic 1
49 Rachel Lu 2019 25:12.8 8:24 9/16/16 Woodbridge XC Classic 1
50 Dana Lin 2020 25:24.2 8:28 9/15/17 Woodbridge XC Classic 2
51 Camille Whetsel 2024 25:31.3 8:30 9/17/21 Woodbridge Cross Country Classic 1
52 Ellie Nakamura 2024 25:33.6 8:31 9/17/21 Woodbridge Cross Country Classic 1
53 Isabelle Whetsel 2023 26:54.7 8:58 9/20/19 Woodbridge XC Classic 1
54 Claire Wang 2024 26:57.8 8:59 9/17/21 Woodbridge Cross Country Classic 1
55 Aria Argus 2023 27:16.3 9:05 9/17/21 Woodbridge Cross Country Classic 1
56 Andree BeVard 2020 28:10.1 9:23 9/16/16 Woodbridge XC Classic 1
57 Alaska Romero 2019 28:39.5 9:33 9/15/17 Woodbridge XC Classic 1
58 Nicole Jimenez 2020 28:50.2 9:37 9/16/16 Woodbridge XC Classic 1
59 Jillian Goldstein 2022 30:09.1 10:03 9/20/19 Woodbridge XC Classic 1
60 Anna Gale 2020 31:47.4 10:36 9/16/16 Woodbridge XC Classic 1
61 Sophie Hu 2025 32:46.6 10:56 9/17/21 Woodbridge Cross Country Classic 1
62 Kiera Atkinson 2021 34:04 11:21 9/20/19 Woodbridge XC Classic 1
All Time Rank Runner Name Grad Year Time Pace PR Date PR Event # of
Races
Graph full race
history on course
(pick up to 7)

Note: All columns are sortable by clicking on the column heading.